createdAt,value
2018-04-19T00:00:16.001Z,15.70
2018-04-19T00:02:44.695Z,15.70
2018-04-19T00:05:13.383Z,15.70
2018-04-19T00:07:41.584Z,15.60
2018-04-19T00:10:09.966Z,15.60
2018-04-19T00:12:38.953Z,15.50
2018-04-19T00:15:07.924Z,15.50
2018-04-19T00:17:36.151Z,15.50
2018-04-19T00:20:04.440Z,15.40
2018-04-19T00:22:33.599Z,15.40
2018-04-19T00:25:02.983Z,15.40
2018-04-19T00:27:31.176Z,15.30
2018-04-19T00:30:00.144Z,15.20
2018-04-19T00:32:28.372Z,15.20
2018-04-19T00:34:57.054Z,15.20
2018-04-19T00:37:25.291Z,15.10
2018-04-19T00:39:53.501Z,15.00
2018-04-19T00:42:22.683Z,15.00
2018-04-19T00:44:51.814Z,15.00
2018-04-19T00:47:20.012Z,15.10
2018-04-19T00:49:48.523Z,15.10
2018-04-19T00:52:16.735Z,15.00
2018-04-19T00:54:45.280Z,15.00
2018-04-19T00:57:13.573Z,14.90
2018-04-19T00:59:42.868Z,14.90
2018-04-19T01:02:11.081Z,14.90
2018-04-19T01:04:39.615Z,14.80
2018-04-19T01:07:07.812Z,14.80
2018-04-19T01:09:36.371Z,14.80
2018-04-19T01:12:04.576Z,14.80
2018-04-19T01:14:32.782Z,14.80
2018-04-19T01:17:00.993Z,14.70
2018-04-19T01:19:29.696Z,14.80
2018-04-19T01:21:58.206Z,14.70
2018-04-19T01:24:27.468Z,14.70
2018-04-19T01:26:55.773Z,14.60
2018-04-19T01:29:24.736Z,14.50
2018-04-19T01:31:52.932Z,14.50
2018-04-19T01:34:21.144Z,14.50
2018-04-19T01:36:49.343Z,14.40
2018-04-19T01:39:17.549Z,14.40
2018-04-19T01:41:47.072Z,14.40
2018-04-19T01:44:15.719Z,14.40
2018-04-19T01:46:43.934Z,14.30
2018-04-19T01:49:12.127Z,14.20
2018-04-19T01:51:40.339Z,14.20
2018-04-19T01:54:08.933Z,14.10
2018-04-19T01:56:42.084Z,14.10
2018-04-19T01:59:10.729Z,14.10
2018-04-19T02:01:38.929Z,14.00
2018-04-19T02:04:08.508Z,14.00
2018-04-19T02:06:36.699Z,13.90
2018-04-19T02:09:06.154Z,13.90
2018-04-19T02:11:34.362Z,13.90
2018-04-19T02:14:02.547Z,13.90
2018-04-19T02:16:30.995Z,13.80
2018-04-19T02:18:59.197Z,13.80
2018-04-19T02:21:27.409Z,13.70
2018-04-19T02:23:56.156Z,13.70
2018-04-19T02:26:24.531Z,13.60
2018-04-19T02:28:53.083Z,13.60
2018-04-19T02:31:21.285Z,13.60
2018-04-19T02:33:49.493Z,13.60
2018-04-19T02:36:18.472Z,13.60
2018-04-19T02:38:46.674Z,13.60
2018-04-19T02:41:15.952Z,13.50
2018-04-19T02:43:44.224Z,13.50
2018-04-19T02:46:12.427Z,13.60
2018-04-19T02:48:40.624Z,13.50
2018-04-19T02:51:08.844Z,13.50
2018-04-19T02:53:39.601Z,13.40
2018-04-19T02:56:08.849Z,13.40
2018-04-19T02:58:37.053Z,13.40
2018-04-19T03:01:05.597Z,13.40
2018-04-19T03:03:34.253Z,13.40
2018-04-19T03:06:02.448Z,13.30
2018-04-19T03:08:31.140Z,13.40
2018-04-19T03:10:59.343Z,13.30
2018-04-19T03:13:33.252Z,13.30
2018-04-19T03:16:01.444Z,13.30
2018-04-19T03:18:29.639Z,13.20
2018-04-19T03:20:57.860Z,13.20
2018-04-19T03:23:26.400Z,13.10
2018-04-19T03:25:54.602Z,13.10
2018-04-19T03:28:23.855Z,13.00
2018-04-19T03:30:52.371Z,12.90
2018-04-19T03:33:21.336Z,12.80
2018-04-19T03:35:49.720Z,12.70
2018-04-19T03:38:18.525Z,12.70
2018-04-19T03:40:47.141Z,12.70
2018-04-19T03:43:15.816Z,12.70
2018-04-19T03:45:44.792Z,12.70
2018-04-19T03:48:12.991Z,12.60
2018-04-19T03:50:41.217Z,12.70
2018-04-19T03:53:09.908Z,12.60
2018-04-19T03:55:38.400Z,12.70
2018-04-19T03:58:06.602Z,12.60
2018-04-19T04:00:35.164Z,12.60
2018-04-19T04:03:03.359Z,12.40
2018-04-19T04:05:31.913Z,12.30
2018-04-19T04:08:04.566Z,12.20
2018-04-19T04:10:32.768Z,12.20
2018-04-19T04:13:01.248Z,12.30
2018-04-19T04:15:29.447Z,12.40
2018-04-19T04:18:09.359Z,12.50
2018-04-19T04:20:49.220Z,12.50
2018-04-19T04:23:44.976Z,12.50
2018-04-19T04:26:13.962Z,12.40
2018-04-19T04:28:47.460Z,12.50
2018-04-19T04:31:16.751Z,12.50
2018-04-19T04:33:44.948Z,12.50
2018-04-19T04:36:13.156Z,12.40
2018-04-19T04:38:42.307Z,12.40
2018-04-19T04:41:11.279Z,12.40
2018-04-19T04:43:39.940Z,12.40
2018-04-19T04:46:08.139Z,12.40
2018-04-19T04:48:36.351Z,12.40
2018-04-19T04:51:05.222Z,12.40
2018-04-19T04:53:33.516Z,12.40
2018-04-19T04:56:02.584Z,12.30
2018-04-19T04:58:30.792Z,12.30
2018-04-19T05:00:59.089Z,12.30
2018-04-19T05:03:28.087Z,12.40
2018-04-19T05:05:56.287Z,12.40
2018-04-19T05:08:25.840Z,12.40
2018-04-19T05:10:55.042Z,12.40
2018-04-19T05:13:24.013Z,12.40
2018-04-19T05:15:52.231Z,12.40
2018-04-19T05:18:20.452Z,12.50
2018-04-19T05:20:48.668Z,12.50
2018-04-19T05:23:17.116Z,12.50
2018-04-19T05:25:45.625Z,12.50
2018-04-19T05:28:14.678Z,12.60
2018-04-19T05:30:43.101Z,12.60
2018-04-19T05:33:12.160Z,12.70
2018-04-19T05:35:40.382Z,12.70
2018-04-19T05:38:14.908Z,12.80
2018-04-19T05:40:43.568Z,12.80
2018-04-19T05:43:11.971Z,12.90
2018-04-19T05:45:40.941Z,13.00
2018-04-19T05:48:09.492Z,13.00
2018-04-19T05:50:37.782Z,13.00
2018-04-19T05:53:05.987Z,13.20
2018-04-19T05:55:35.223Z,13.30
2018-04-19T05:58:03.810Z,13.30
2018-04-19T06:00:32.680Z,13.40
2018-04-19T06:03:00.883Z,13.50
2018-04-19T06:05:29.469Z,13.50
2018-04-19T06:08:04.376Z,13.60
2018-04-19T06:10:32.580Z,13.70
2018-04-19T06:13:00.784Z,13.80
2018-04-19T06:15:29.004Z,13.90
2018-04-19T06:17:57.217Z,14.00
2018-04-19T06:20:31.571Z,14.10
2018-04-19T06:23:00.965Z,14.30
2018-04-19T06:25:29.160Z,14.30
2018-04-19T06:27:58.568Z,14.50
2018-04-19T06:30:28.008Z,14.60
2018-04-19T06:32:56.224Z,14.60
2018-04-19T06:35:24.428Z,14.80
2018-04-19T06:37:52.647Z,14.90
2018-04-19T06:40:20.915Z,15.00
2018-04-19T06:42:49.532Z,15.20
2018-04-19T06:45:17.813Z,15.30
2018-04-19T06:47:46.012Z,15.40
2018-04-19T06:50:14.976Z,15.70
2018-04-19T06:52:43.199Z,15.60
2018-04-19T06:55:13.095Z,15.80
2018-04-19T06:57:42.059Z,16.10
2018-04-19T07:00:10.652Z,16.10
2018-04-19T07:02:38.856Z,16.20
2018-04-19T07:05:08.337Z,16.50
2018-04-19T07:07:36.536Z,16.50
2018-04-19T07:10:05.464Z,16.70
2018-04-19T07:12:33.671Z,16.80
2018-04-19T07:15:01.863Z,17.00
2018-04-19T07:17:31.071Z,17.30
2018-04-19T07:19:59.275Z,17.20
2018-04-19T07:22:28.116Z,17.30
2018-04-19T07:24:56.313Z,17.50
2018-04-19T07:27:25.380Z,17.90
2018-04-19T07:29:53.769Z,17.80
2018-04-19T07:32:22.056Z,18.00
2018-04-19T07:34:50.543Z,18.20
2018-04-19T07:37:19.514Z,18.50
2018-04-19T07:39:48.312Z,18.50
2018-04-19T07:42:19.691Z,18.70
2018-04-19T07:44:48.658Z,18.90
2018-04-19T07:47:16.859Z,18.90
2018-04-19T07:49:46.036Z,19.30
2018-04-19T07:52:14.231Z,19.30
2018-04-19T07:54:43.097Z,19.50
2018-04-19T07:57:11.977Z,19.60
2018-04-19T07:59:40.236Z,19.70
2018-04-19T08:02:08.532Z,19.90
2018-04-19T08:04:36.811Z,20.10
2018-04-19T08:07:05.018Z,20.30
2018-04-19T08:09:33.462Z,20.60
2018-04-19T08:12:02.070Z,20.80
2018-04-19T08:14:30.266Z,20.90
2018-04-19T08:16:59.242Z,21.30
2018-04-19T08:19:27.447Z,21.30
2018-04-19T08:21:57.828Z,21.50
2018-04-19T08:24:26.069Z,21.70
2018-04-19T08:26:55.060Z,21.70
2018-04-19T08:29:23.688Z,21.90
2018-04-19T08:31:51.896Z,22.10
2018-04-19T08:34:20.866Z,22.40
2018-04-19T08:36:49.254Z,22.40
2018-04-19T08:39:19.279Z,22.80
2018-04-19T08:44:22.696Z,22.90
2018-04-19T08:46:50.899Z,23.10
2018-04-19T08:49:19.101Z,23.40
2018-04-19T08:51:47.329Z,23.60
2018-04-19T08:54:15.521Z,23.80
2018-04-19T08:56:44.353Z,23.90
2018-04-19T08:59:12.846Z,24.10
2018-04-19T09:01:46.651Z,24.20
2018-04-19T09:04:15.106Z,24.40
2018-04-19T09:06:43.857Z,24.50
2018-04-19T09:09:12.288Z,24.80
2018-04-19T09:11:40.520Z,24.80
2018-04-19T09:14:08.720Z,25.00
2018-04-19T09:16:36.948Z,25.10
2018-04-19T09:19:05.144Z,25.20
2018-04-19T09:21:33.347Z,25.40
2018-04-19T09:24:02.880Z,25.70
2018-04-19T09:26:31.096Z,25.70
2018-04-19T09:28:59.439Z,25.80
2018-04-19T09:31:27.712Z,26.00
2018-04-19T09:33:55.915Z,26.10
2018-04-19T09:36:24.879Z,26.40
2018-04-19T09:38:53.571Z,26.40
2018-04-19T09:41:21.785Z,26.50
2018-04-19T09:43:50.348Z,26.60
2018-04-19T09:46:19.330Z,26.80
2018-04-19T09:48:47.537Z,26.80
2018-04-19T09:51:16.004Z,27.00
2018-04-19T09:53:45.019Z,27.20
2018-04-19T09:56:13.961Z,27.10
2018-04-19T09:58:42.164Z,27.30
2018-04-19T10:01:11.993Z,27.30
2018-04-19T10:03:46.215Z,27.40
2018-04-19T10:06:14.801Z,27.30
2018-04-19T10:08:43.781Z,27.40
2018-04-19T10:11:12.754Z,27.40
2018-04-19T10:13:41.558Z,27.50
2018-04-19T10:16:10.543Z,27.60
2018-04-19T10:18:38.728Z,27.50
2018-04-19T10:21:07.726Z,27.60
2018-04-19T10:23:36.071Z,27.60
2018-04-19T10:26:05.197Z,27.70
2018-04-19T10:28:33.884Z,27.70
2018-04-19T10:31:02.188Z,27.70
2018-04-19T10:33:30.395Z,27.70
2018-04-19T10:35:58.684Z,27.80
2018-04-19T10:38:27.243Z,27.90
2018-04-19T10:40:55.438Z,27.90
2018-04-19T10:43:24.070Z,27.90
2018-04-19T10:45:53.272Z,28.00
2018-04-19T10:48:21.572Z,28.00
2018-04-19T10:50:49.787Z,28.00
2018-04-19T10:53:17.984Z,28.10
2018-04-19T10:55:46.555Z,28.20
2018-04-19T10:58:14.977Z,28.30
2018-04-19T11:00:43.651Z,28.40
2018-04-19T11:03:12.427Z,28.50
2018-04-19T11:05:41.707Z,28.70
2018-04-19T11:08:10.112Z,28.70
2018-04-19T11:10:38.308Z,28.90
2018-04-19T11:13:06.508Z,29.00
2018-04-19T11:15:34.723Z,29.10
2018-04-19T11:18:02.934Z,29.20
2018-04-19T11:20:31.139Z,29.30
2018-04-19T11:22:59.851Z,29.30
2018-04-19T11:25:28.058Z,29.40
2018-04-19T11:27:56.637Z,29.50
2018-04-19T11:30:25.907Z,29.60
2018-04-19T11:32:54.399Z,29.60
2018-04-19T11:35:22.606Z,29.60
2018-04-19T11:37:50.795Z,29.60
2018-04-19T11:40:19.667Z,29.70
2018-04-19T11:42:48.942Z,29.50
2018-04-19T11:45:17.144Z,29.50
2018-04-19T11:47:46.111Z,29.80
2018-04-19T11:50:14.486Z,29.80
2018-04-19T11:52:44.092Z,30.00
2018-04-19T11:55:14.146Z,30.30
2018-04-19T11:57:42.351Z,30.40
2018-04-19T12:00:10.600Z,30.30
2018-04-19T12:02:39.962Z,30.50
2018-04-19T12:05:08.275Z,30.40
2018-04-19T12:07:37.261Z,30.10
2018-04-19T12:10:05.844Z,30.10
2018-04-19T12:12:34.817Z,30.00
2018-04-19T12:15:03.016Z,30.00
2018-04-19T12:17:31.995Z,30.00
2018-04-19T12:20:00.208Z,30.00
2018-04-19T12:22:28.848Z,29.90
2018-04-19T12:24:57.051Z,29.80
2018-04-19T12:27:25.610Z,29.70
2018-04-19T12:29:53.877Z,29.70
2018-04-19T12:32:22.164Z,29.60
2018-04-19T12:34:50.370Z,29.50
2018-04-19T12:37:18.569Z,29.70
2018-04-19T12:39:46.991Z,29.70
2018-04-19T12:42:15.917Z,29.90
2018-04-19T12:44:46.436Z,29.90
2018-04-19T12:47:15.408Z,29.80
2018-04-19T12:49:43.828Z,29.80
2018-04-19T12:52:12.036Z,29.90
2018-04-19T12:54:40.236Z,30.30
2018-04-19T12:57:08.798Z,30.60
2018-04-19T12:59:37.961Z,30.80
2018-04-19T13:02:06.451Z,31.20
2018-04-19T13:04:35.080Z,31.40
2018-04-19T13:07:03.285Z,31.70
2018-04-19T13:09:31.887Z,31.80
2018-04-19T13:12:00.092Z,31.70
2018-04-19T13:14:28.308Z,31.70
2018-04-19T13:16:56.515Z,31.60
2018-04-19T13:19:24.726Z,31.70
2018-04-19T13:22:03.503Z,32.00
2018-04-19T13:24:32.474Z,32.50
2018-04-19T13:27:01.052Z,32.50
2018-04-19T13:29:29.759Z,32.80
2018-04-19T13:31:57.951Z,33.00
2018-04-19T13:34:26.920Z,33.50
2018-04-19T13:36:55.408Z,33.50
2018-04-19T13:39:24.653Z,33.70
2018-04-19T13:41:52.844Z,33.70
2018-04-19T13:44:21.254Z,33.70
2018-04-19T13:46:49.452Z,33.70
2018-04-19T13:49:17.665Z,33.70
2018-04-19T13:51:45.868Z,33.60
2018-04-19T13:54:14.840Z,33.60
2018-04-19T13:56:43.379Z,33.60
2018-04-19T13:59:13.189Z,33.40
2018-04-19T14:01:43.099Z,33.10
2018-04-19T14:04:12.811Z,32.80
2018-04-19T14:06:41.776Z,32.60
2018-04-19T14:09:10.303Z,32.60
2018-04-19T14:11:39.268Z,32.30
2018-04-19T14:14:07.474Z,32.20
2018-04-19T14:16:35.682Z,32.20
2018-04-19T14:19:03.913Z,32.30
2018-04-19T14:21:32.097Z,32.20
2018-04-19T14:24:00.679Z,32.10
2018-04-19T14:26:29.728Z,31.90
2018-04-19T14:28:58.434Z,31.90
2018-04-19T14:31:26.639Z,31.80
2018-04-19T14:33:54.836Z,31.70
2018-04-19T14:36:23.057Z,31.80
2018-04-19T14:38:51.540Z,31.80
2018-04-19T14:41:19.751Z,31.70
2018-04-19T14:43:48.282Z,31.70
2018-04-19T14:46:16.860Z,31.80
2018-04-19T14:48:45.273Z,31.70
2018-04-19T14:51:13.491Z,31.70
2018-04-19T14:53:41.690Z,31.70
2018-04-19T14:56:10.624Z,31.70
2018-04-19T14:58:39.596Z,31.70
2018-04-19T15:01:08.188Z,31.70
2018-04-19T15:03:36.869Z,31.90
2018-04-19T15:06:05.067Z,32.00
2018-04-19T15:08:39.470Z,32.00
2018-04-19T15:11:07.680Z,32.00
2018-04-19T15:13:35.879Z,32.10
2018-04-19T15:16:04.097Z,32.10
2018-04-19T15:18:32.297Z,32.20
2018-04-19T15:21:01.264Z,32.40
2018-04-19T15:23:29.717Z,32.40
2018-04-19T15:25:57.925Z,32.50
2018-04-19T15:28:26.395Z,32.60
2018-04-19T15:30:54.879Z,32.70
2018-04-19T15:33:23.331Z,32.50
2018-04-19T15:35:51.662Z,32.30
2018-04-19T15:38:20.480Z,32.10
2018-04-19T15:40:49.088Z,32.00
2018-04-19T15:43:17.927Z,31.80
2018-04-19T15:45:46.900Z,31.50
2018-04-19T15:48:15.099Z,31.40
2018-04-19T15:50:44.090Z,31.10
2018-04-19T15:53:12.599Z,31.10
2018-04-19T15:55:41.311Z,31.10
2018-04-19T15:58:09.970Z,31.00
2018-04-19T16:00:39.474Z,30.40
2018-04-19T16:03:09.252Z,30.30
2018-04-19T16:05:38.058Z,30.30
2018-04-19T16:08:08.176Z,30.00
2018-04-19T16:10:37.702Z,29.80
2018-04-19T16:13:06.657Z,29.60
2018-04-19T16:15:35.147Z,29.60
2018-04-19T16:18:03.351Z,29.50
2018-04-19T16:20:31.543Z,29.20
2018-04-19T16:23:01.099Z,28.90
2018-04-19T16:25:29.681Z,28.90
2018-04-19T16:27:59.654Z,28.60
2018-04-19T16:30:27.957Z,28.60
2018-04-19T16:32:56.973Z,28.40
2018-04-19T16:35:26.378Z,28.40
2018-04-19T16:37:54.587Z,28.40
2018-04-19T16:40:23.144Z,28.30
2018-04-19T16:42:52.248Z,28.30
2018-04-19T16:45:21.228Z,28.00
2018-04-19T16:47:49.435Z,27.90
2018-04-19T16:50:18.407Z,27.80
2018-04-19T16:52:46.952Z,27.80
2018-04-19T16:55:15.864Z,27.70
2018-04-19T16:57:44.823Z,27.50
2018-04-19T17:00:19.575Z,27.40
2018-04-19T17:02:48.540Z,27.30
2018-04-19T17:05:16.970Z,27.30
2018-04-19T17:07:45.172Z,27.30
2018-04-19T17:10:13.718Z,27.30
2018-04-19T17:12:41.938Z,27.20
2018-04-19T17:15:10.132Z,27.20
2018-04-19T17:17:38.344Z,27.10
2018-04-19T17:20:07.118Z,27.10
2018-04-19T17:22:35.802Z,27.10
2018-04-19T17:25:04.735Z,27.00
2018-04-19T17:27:33.774Z,26.80
2018-04-19T17:30:02.090Z,26.80
2018-04-19T17:32:30.361Z,26.80
2018-04-19T17:34:58.535Z,26.70
2018-04-19T17:37:26.779Z,26.60
2018-04-19T17:39:55.206Z,26.60
2018-04-19T17:42:25.141Z,26.40
2018-04-19T17:44:54.112Z,26.30
2018-04-19T17:47:22.309Z,26.30
2018-04-19T17:49:51.314Z,26.20
2018-04-19T17:52:20.279Z,26.10
2018-04-19T17:54:48.477Z,26.10
2018-04-19T17:57:17.640Z,26.00
2018-04-19T17:59:46.543Z,25.90
2018-04-19T18:02:15.989Z,25.80
2018-04-19T18:04:44.584Z,25.70
2018-04-19T18:07:12.784Z,25.60
2018-04-19T18:09:41.496Z,25.50
2018-04-19T18:12:09.703Z,25.40
2018-04-19T18:14:38.659Z,25.20
2018-04-19T18:17:07.275Z,25.20
2018-04-19T18:19:36.460Z,25.00
2018-04-19T18:22:10.244Z,24.90
2018-04-19T18:24:38.451Z,24.80
2018-04-19T18:27:07.192Z,24.70
2018-04-19T18:29:35.840Z,24.60
2018-04-19T18:32:04.031Z,24.50
2018-04-19T18:34:32.266Z,24.40
2018-04-19T18:37:05.433Z,24.20
2018-04-19T18:39:34.034Z,24.20
2018-04-19T18:42:02.244Z,24.10
2018-04-19T18:44:31.420Z,23.80
2018-04-19T18:47:00.389Z,23.70
2018-04-19T18:49:28.603Z,23.70
2018-04-19T18:51:57.572Z,23.60
2018-04-19T18:54:25.798Z,23.60
2018-04-19T18:56:53.987Z,23.50
2018-04-19T18:59:23.144Z,23.40
2018-04-19T19:01:57.860Z,23.20
2018-04-19T19:04:26.348Z,23.10
2018-04-19T19:06:54.599Z,23.10
2018-04-19T19:09:23.321Z,23.00
2018-04-19T19:11:51.526Z,22.90
2018-04-19T19:14:20.384Z,22.90
2018-04-19T19:16:49.662Z,22.70
2018-04-19T19:19:29.633Z,22.60
2018-04-19T19:22:11.644Z,22.50
2018-04-19T19:24:39.840Z,22.40
2018-04-19T19:27:09.179Z,22.30
2018-04-19T19:29:37.424Z,22.30
2018-04-19T19:32:05.620Z,22.20
2018-04-19T19:34:33.831Z,22.20
2018-04-19T19:37:02.280Z,22.20
2018-04-19T19:39:31.203Z,22.10
2018-04-19T19:41:59.684Z,22.00
2018-04-19T19:44:28.563Z,22.00
2018-04-19T19:46:56.934Z,21.90
2018-04-19T19:49:25.103Z,21.90
2018-04-19T19:51:53.325Z,21.80
2018-04-19T19:54:23.460Z,21.70
2018-04-19T19:56:51.660Z,21.70
2018-04-19T19:59:20.277Z,21.60
2018-04-19T20:01:48.880Z,21.60
2018-04-19T20:04:18.519Z,21.50
2018-04-19T20:06:46.716Z,21.50
2018-04-19T20:09:16.268Z,21.40
2018-04-19T20:11:45.343Z,21.30
2018-04-19T20:14:13.569Z,21.30
2018-04-19T20:16:41.759Z,21.20
2018-04-19T20:19:10.318Z,21.10
2018-04-19T20:21:39.279Z,21.00
2018-04-19T20:24:08.109Z,21.00
2018-04-19T20:26:42.723Z,21.00
2018-04-19T20:29:12.679Z,20.90
2018-04-19T20:31:40.933Z,20.90
2018-04-19T20:34:09.153Z,20.80
2018-04-19T20:36:37.673Z,20.80
2018-04-19T20:39:07.145Z,20.70
2018-04-19T20:41:35.340Z,20.70
2018-04-19T20:44:05.748Z,20.60
2018-04-19T20:46:33.963Z,20.60
2018-04-19T20:49:02.179Z,20.50
2018-04-19T20:51:30.615Z,20.40
2018-04-19T20:53:59.581Z,20.40
2018-04-19T20:56:27.790Z,20.30
2018-04-19T20:59:00.332Z,20.30
2018-04-19T21:01:28.545Z,20.20
2018-04-19T21:03:57.239Z,20.20
2018-04-19T21:06:25.668Z,20.20
2018-04-19T21:08:54.087Z,20.20
2018-04-19T21:11:22.288Z,20.10
2018-04-19T21:13:50.488Z,20.10
2018-04-19T21:16:18.985Z,20.00
2018-04-19T21:18:47.179Z,19.90
2018-04-19T21:21:15.759Z,19.90
2018-04-19T21:23:44.225Z,19.90
2018-04-19T21:26:12.433Z,19.80
2018-04-19T21:28:41.139Z,19.80
2018-04-19T21:31:09.475Z,19.70
2018-04-19T21:33:37.693Z,19.70
2018-04-19T21:36:05.893Z,19.70
2018-04-19T21:38:37.363Z,19.70
2018-04-19T21:41:05.555Z,19.50
2018-04-19T21:43:33.822Z,19.50
2018-04-19T21:46:02.020Z,19.50
2018-04-19T21:48:30.987Z,19.30
2018-04-19T21:50:59.505Z,19.30
2018-04-19T21:53:28.481Z,19.20
2018-04-19T21:55:56.912Z,19.20
2018-04-19T21:58:25.477Z,19.20
2018-04-19T22:00:53.936Z,19.20
2018-04-19T22:03:22.902Z,19.10
2018-04-19T22:05:51.488Z,19.10
2018-04-19T22:08:20.068Z,19.10
2018-04-19T22:10:48.272Z,19.00
2018-04-19T22:13:16.471Z,19.00
2018-04-19T22:15:44.832Z,19.00
2018-04-19T22:18:13.800Z,19.00
2018-04-19T22:20:42.003Z,18.90
2018-04-19T22:23:11.484Z,18.80
2018-04-19T22:25:39.683Z,18.80
2018-04-19T22:28:08.240Z,18.70
2018-04-19T22:30:36.940Z,18.70
2018-04-19T22:33:05.147Z,18.60
2018-04-19T22:35:33.348Z,18.60
2018-04-19T22:38:02.178Z,18.60
2018-04-19T22:40:30.788Z,18.50
2018-04-19T22:42:59.351Z,18.50
2018-04-19T22:45:27.557Z,18.40
2018-04-19T22:47:55.864Z,18.40
2018-04-19T22:50:24.095Z,18.30
2018-04-19T22:52:52.296Z,18.20
2018-04-19T22:55:20.491Z,18.20
2018-04-19T22:57:49.471Z,18.20
2018-04-19T23:00:17.726Z,18.20
2018-04-19T23:02:46.699Z,18.10
2018-04-19T23:05:15.268Z,18.00
2018-04-19T23:07:43.474Z,18.00
2018-04-19T23:10:12.500Z,17.90
2018-04-19T23:12:40.695Z,17.80
2018-04-19T23:15:09.626Z,17.90
2018-04-19T23:17:38.634Z,17.90
2018-04-19T23:20:06.796Z,17.80
2018-04-19T23:22:36.096Z,17.90
2018-04-19T23:25:05.081Z,17.80
2018-04-19T23:27:34.165Z,17.80
2018-04-19T23:30:03.056Z,17.70
2018-04-19T23:32:31.433Z,17.70
2018-04-19T23:34:59.589Z,17.70
2018-04-19T23:37:27.807Z,17.70
2018-04-19T23:39:56.368Z,17.70
2018-04-19T23:42:24.572Z,17.60
2018-04-19T23:44:53.244Z,17.50
2018-04-19T23:47:21.445Z,17.50
2018-04-19T23:49:50.416Z,17.50
2018-04-19T23:52:18.716Z,17.40
2018-04-19T23:54:46.911Z,17.40
2018-04-19T23:57:15.123Z,17.40
2018-04-19T23:59:43.628Z,17.30
